Terminal Aerodrome Forecast
Issued by NWS Albany, NY

Home | Current Version | Previous Version | Text Only | Print | Product List | Glossary On
Versions: 1 2 3 4 5 6 7 8 9 10 11 12 13 14 15 16 17 18 19 20 21 22 23 24 25 26 27 28 29 30 31 32
226
FTUS41 KALY 241122
TAFPOU
TAF
KPOU 241122Z 2412/2512 36009KT 6SM -RA BR OVC030
      TEMPO 2412/2415 4SM BR BKN015 OVC025
     FM241900 34008KT 3SM -RA BR OVC010
     FM250000 33011KT 2SM -RASN BR OVC008
     FM250500 31010KT P6SM VCSH BKN035=

USA.gov is the U.S. government's official web portal to all federal, state and local government web resources and services.